Time;durP1;ratioP1;P1;durP2;ratioP2;P2;SDS_P1;SDS_P2;PMS_P1;PMS_P2;Temp;Humidity;BMP_temperature;BMP_pressure;BME280_temperature;BME280_humidity;BME280_pressure;Samples;Min_cycle;Max_cycle;Signal;HPM_P1;HPM_P2
2022/10/09 00:01:38;;;;;;;1999.90;999.90;;;8.00;99.90;;;;;;5070546;28;20505;-66
2022/10/09 00:04:05;;;;;;;1999.90;999.90;;;8.00;99.90;;;;;;5070836;28;20532;-66
2022/10/09 00:06:34;;;;;;;1999.90;999.90;;;8.10;99.90;;;;;;5070955;28;20520;-66
2022/10/09 00:09:02;;;;;;;1999.90;999.90;;;8.20;99.90;;;;;;5070381;28;20955;-65
2022/10/09 00:11:31;;;;;;;1999.90;999.90;;;8.20;99.90;;;;;;5070392;28;20443;-66
2022/10/09 00:14:00;;;;;;;1999.90;999.90;;;8.30;99.90;;;;;;5070165;28;20451;-66
2022/10/09 00:16:27;;;;;;;1999.90;999.90;;;8.20;99.90;;;;;;5070167;28;20470;-66
2022/10/09 00:18:54;;;;;;;1999.90;999.90;;;8.20;99.90;;;;;;5071251;28;20447;-66
2022/10/09 00:21:24;;;;;;;1999.90;999.90;;;8.10;99.90;;;;;;5071064;28;20471;-66
2022/10/09 00:23:52;;;;;;;1999.90;999.90;;;8.00;99.90;;;;;;5070168;28;20451;-66
2022/10/09 00:26:19;;;;;;;1999.90;999.90;;;8.00;99.90;;;;;;5071266;28;20815;-66
2022/10/09 00:28:46;;;;;;;1999.90;999.90;;;7.80;99.90;;;;;;5071096;28;20826;-66
2022/10/09 00:31:14;;;;;;;1999.90;999.90;;;7.90;99.90;;;;;;5069906;28;20822;-66
2022/10/09 00:33:41;;;;;;;1999.90;999.90;;;7.80;99.90;;;;;;5069854;28;20447;-66
2022/10/09 00:36:11;;;;;;;1999.90;999.90;;;7.70;99.90;;;;;;5070541;28;20553;-66
2022/10/09 00:38:38;;;;;;;1999.90;999.90;;;7.60;99.90;;;;;;5070706;28;20447;-66
2022/10/09 00:41:05;;;;;;;1999.90;999.90;;;7.60;99.90;;;;;;5070834;28;20484;-66
2022/10/09 00:43:42;;;;;;;1999.90;999.90;;;7.60;99.90;;;;;;5070669;28;20446;-66
2022/10/09 00:46:25;;;;;;;1999.90;999.90;;;7.60;99.90;;;;;;5070987;28;20542;-66
2022/10/09 00:48:58;;;;;;;1999.90;999.90;;;7.50;99.90;;;;;;5070660;28;20447;-66
2022/10/09 00:51:25;;;;;;;1999.90;999.90;;;7.40;99.90;;;;;;5070268;28;20466;-66
2022/10/09 00:53:52;;;;;;;1999.90;999.90;;;7.40;99.90;;;;;;5070369;28;20447;-66
2022/10/09 00:56:19;;;;;;;1999.90;999.90;;;7.40;99.90;;;;;;5070901;28;20471;-66
2022/10/09 00:58:51;;;;;;;1999.90;999.90;;;7.30;99.90;;;;;;5070892;28;20465;-66
2022/10/09 01:01:19;;;;;;;1999.90;999.90;;;7.40;99.90;;;;;;5070632;28;20488;-66
2022/10/09 01:03:46;;;;;;;1999.90;999.90;;;7.40;99.90;;;;;;5070453;28;20451;-66
2022/10/09 01:06:18;;;;;;;1999.90;999.90;;;7.40;99.90;;;;;;5070577;28;20474;-66
2022/10/09 01:08:51;;;;;;;1999.90;999.90;;;7.30;99.90;;;;;;5070727;28;20455;-66
2022/10/09 01:11:29;;;;;;;1999.90;999.90;;;7.30;99.90;;;;;;5070168;28;20940;-66
2022/10/09 01:14:03;;;;;;;1999.90;999.90;;;7.20;99.90;;;;;;5070327;28;20451;-66
2022/10/09 01:16:35;;;;;;;1999.90;999.90;;;7.20;99.90;;;;;;5070121;28;20856;-66
2022/10/09 01:19:12;;;;;;;1999.90;999.90;;;7.30;99.90;;;;;;5070751;28;20446;-66
2022/10/09 01:21:43;;;;;;;1999.90;999.90;;;7.30;99.90;;;;;;5069759;28;20483;-66
2022/10/09 01:24:22;;;;;;;1999.90;999.90;;;7.40;99.90;;;;;;5070123;28;21280;-66
2022/10/09 01:26:56;;;;;;;1999.90;999.90;;;7.30;99.90;;;;;;5070078;28;20475;-66
2022/10/09 01:29:26;;;;;;;1999.90;999.90;;;7.30;99.90;;;;;;5070046;28;20438;-66
2022/10/09 01:31:54;;;;;;;1999.90;999.90;;;7.20;99.90;;;;;;5069623;28;20444;-66
2022/10/09 01:34:22;;;;;;;1999.90;999.90;;;7.20;99.90;;;;;;5069952;28;20451;-66
2022/10/09 01:36:50;;;;;;;1999.90;999.90;;;7.20;99.90;;;;;;5069748;28;20549;-66
2022/10/09 01:39:19;;;;;;;1999.90;999.90;;;7.20;99.90;;;;;;5069756;28;20443;-66
2022/10/09 01:41:49;;;;;;;1999.90;999.90;;;7.10;99.90;;;;;;5069212;28;20477;-66
2022/10/09 01:44:20;;;;;;;1999.90;999.90;;;7.10;99.90;;;;;;5069116;28;20450;-66
2022/10/09 01:46:47;;;;;;;1999.90;999.90;;;7.10;99.90;;;;;;5069944;28;20490;-66
2022/10/09 01:49:24;;;;;;;1999.90;999.90;;;7.10;99.90;;;;;;5069963;28;20443;-66
2022/10/09 01:51:59;;;;;;;1999.90;999.90;;;7.10;99.90;;;;;;5069262;28;20466;-66
2022/10/09 01:54:35;;;;;;;1999.90;999.90;;;7.10;99.90;;;;;;5069957;28;20435;-66
2022/10/09 01:57:03;;;;;;;1999.90;999.90;;;7.10;99.90;;;;;;5069410;28;20466;-66
2022/10/09 01:59:36;;;;;;;1999.90;999.90;;;7.10;99.90;;;;;;5069537;28;20447;-66
2022/10/09 02:02:04;;;;;;;1999.90;999.90;;;7.00;99.90;;;;;;5069021;28;20856;-66
2022/10/09 02:04:31;;;;;;;1999.90;999.90;;;6.90;99.90;;;;;;5069555;28;20470;-66
2022/10/09 02:06:58;;;;;;;1999.90;999.90;;;6.80;99.90;;;;;;5069401;28;20837;-66
2022/10/09 02:09:25;;;;;;;1999.90;999.90;;;6.70;99.90;;;;;;5069774;28;20451;-66
2022/10/09 02:11:57;;;;;;;1999.90;999.90;;;6.90;99.90;;;;;;5069461;28;20435;-65
2022/10/09 02:14:24;;;;;;;1999.90;999.90;;;6.90;99.90;;;;;;5069555;28;20474;-66
2022/10/09 02:16:59;;;;;;;1999.90;999.90;;;6.90;99.90;;;;;;5069445;28;20463;-66
2022/10/09 02:19:31;;;;;;;1999.90;999.90;;;6.80;99.90;;;;;;5069323;28;20447;-66
2022/10/09 02:22:05;;;;;;;1999.90;999.90;;;6.70;99.90;;;;;;5069156;28;20517;-66
2022/10/09 02:24:32;;;;;;;1999.90;999.90;;;6.80;99.90;;;;;;5069603;28;20447;-66
2022/10/09 02:27:00;;;;;;;1999.90;999.90;;;6.80;99.90;;;;;;5069585;28;20463;-66
2022/10/09 02:29:27;;;;;;;1999.90;999.90;;;6.80;99.90;;;;;;5069414;28;20459;-66
2022/10/09 02:31:55;;;;;;;1999.90;999.90;;;6.80;99.90;;;;;;5069186;28;20462;-66
2022/10/09 02:34:22;;;;;;;1999.90;999.90;;;6.80;99.90;;;;;;5069703;28;20462;-66
2022/10/09 02:36:49;;;;;;;1999.90;999.90;;;6.80;99.90;;;;;;5069697;28;20469;-66
2022/10/09 02:39:16;;;;;;;1999.90;999.90;;;6.80;99.90;;;;;;5069545;28;20439;-65
2022/10/09 02:41:43;;;;;;;1999.90;999.90;;;6.80;99.90;;;;;;5068914;28;21032;-65
2022/10/09 02:44:10;;;;;;;1999.90;999.90;;;6.70;99.90;;;;;;5069157;28;20458;-65
2022/10/09 02:46:37;;;;;;;1999.90;999.90;;;6.70;99.90;;;;;;5069242;28;20835;-65
2022/10/09 02:49:06;;;;;;;1999.90;999.90;;;6.60;99.90;;;;;;5069338;28;20493;-65
2022/10/09 02:51:32;;;;;;;1999.90;999.90;;;6.60;99.90;;;;;;5068951;28;20443;-65
2022/10/09 02:53:59;;;;;;;1999.90;999.90;;;6.60;99.90;;;;;;5069415;28;20443;-65
2022/10/09 02:56:26;;;;;;;1999.90;999.90;;;6.70;99.90;;;;;;5073130;28;20466;-65
2022/10/09 02:58:53;;;;;;;1999.90;999.90;;;6.60;99.90;;;;;;5072869;28;20943;-65
2022/10/09 03:01:20;;;;;;;1999.90;999.90;;;6.60;99.90;;;;;;5072654;28;20450;-65
2022/10/09 03:03:47;;;;;;;1999.90;999.90;;;6.60;99.90;;;;;;5072543;28;20447;-65
2022/10/09 03:06:18;;;;;;;1999.90;999.90;;;6.50;99.90;;;;;;5072424;28;20471;-65
2022/10/09 03:08:46;;;;;;;1999.90;999.90;;;6.50;99.90;;;;;;5072629;28;20442;-65
2022/10/09 03:11:14;;;;;;;1999.90;999.90;;;6.50;99.90;;;;;;5072381;28;20959;-65
2022/10/09 03:13:42;;;;;;;1999.90;999.90;;;6.40;99.90;;;;;;5072641;28;20447;-65
2022/10/09 03:16:10;;;;;;;1999.90;999.90;;;6.30;99.90;;;;;;5072408;28;20989;-65
2022/10/09 03:18:38;;;;;;;1999.90;999.90;;;6.20;99.90;;;;;;5072394;28;20450;-65
2022/10/09 03:21:06;;;;;;;1999.90;999.90;;;6.40;99.90;;;;;;5072315;28;20565;-65
2022/10/09 03:23:35;;;;;;;1999.90;999.90;;;6.40;99.90;;;;;;5072169;28;20548;-65
2022/10/09 03:26:03;;;;;;;1999.90;999.90;;;6.40;99.90;;;;;;5072248;28;20462;-65
2022/10/09 03:28:30;;;;;;;1999.90;999.90;;;6.40;99.90;;;;;;5072439;28;20443;-65
2022/10/09 03:30:57;;;;;;;1999.90;999.90;;;6.40;99.90;;;;;;5072416;28;20457;-65
2022/10/09 03:33:24;;;;;;;1999.90;999.90;;;6.30;99.90;;;;;;5072091;28;20442;-65
2022/10/09 03:35:50;;;;;;;1999.90;999.90;;;6.20;99.90;;;;;;5072134;28;20481;-65
2022/10/09 03:38:17;;;;;;;1999.90;999.90;;;6.20;99.90;;;;;;5072221;28;20481;-65
2022/10/09 03:40:45;;;;;;;1999.90;999.90;;;6.10;99.90;;;;;;5072219;28;20530;-66
2022/10/09 03:43:12;;;;;;;1999.90;999.90;;;6.10;99.90;;;;;;5072072;28;20489;-66
2022/10/09 03:45:40;;;;;;;1999.90;999.90;;;6.00;99.90;;;;;;5072377;28;20836;-66
2022/10/09 03:48:07;;;;;;;1999.90;999.90;;;6.00;99.90;;;;;;5072457;28;20451;-66
2022/10/09 03:50:34;;;;;;;1999.90;999.90;;;6.00;99.90;;;;;;5072038;28;20443;-66
2022/10/09 03:53:00;;;;;;;1999.90;999.90;;;5.90;99.90;;;;;;5071775;28;20455;-66
2022/10/09 03:55:27;;;;;;;1999.90;999.90;;;6.00;99.90;;;;;;5072007;28;20458;-65
2022/10/09 03:57:55;;;;;;;1999.90;999.90;;;6.00;99.90;;;;;;5072079;28;20478;-66
2022/10/09 04:00:22;;;;;;;1999.90;999.90;;;5.90;99.90;;;;;;5071706;28;20450;-66
2022/10/09 04:02:49;;;;;;;1999.90;999.90;;;5.90;99.90;;;;;;5071201;28;20479;-66
2022/10/09 04:05:16;;;;;;;1999.90;999.90;;;5.80;99.90;;;;;;5071193;28;20474;-66
2022/10/09 04:07:43;;;;;;;1999.90;999.90;;;5.80;99.90;;;;;;5070756;28;20832;-66
2022/10/09 04:10:10;;;;;;;1999.90;999.90;;;5.80;99.90;;;;;;5071443;28;20450;-66
2022/10/09 04:12:37;;;;;;;1999.90;999.90;;;5.70;99.90;;;;;;5071384;28;20450;-66
2022/10/09 04:15:06;;;;;;;1999.90;999.90;;;5.80;99.90;;;;;;5071406;28;20470;-66
2022/10/09 04:17:33;;;;;;;1999.90;999.90;;;5.70;99.90;;;;;;5071337;28;20948;-65
2022/10/09 04:19:59;;;;;;;1999.90;999.90;;;5.70;99.90;;;;;;5071347;28;20452;-66
2022/10/09 04:22:26;;;;;;;1999.90;999.90;;;5.70;99.90;;;;;;5070881;28;20481;-66
2022/10/09 04:24:53;;;;;;;1999.90;999.90;;;5.70;99.90;;;;;;5071342;28;20443;-66
2022/10/09 04:27:20;;;;;;;1999.90;999.90;;;5.60;99.90;;;;;;5071209;28;20442;-66
2022/10/09 04:29:46;;;;;;;1999.90;999.90;;;5.60;99.90;;;;;;5071201;28;20963;-66
2022/10/09 04:32:14;;;;;;;1999.90;999.90;;;5.70;99.90;;;;;;5070751;28;20979;-66
2022/10/09 04:34:41;;;;;;;1999.90;999.90;;;5.70;99.90;;;;;;5070787;28;20462;-66
2022/10/09 04:37:08;;;;;;;1999.90;999.90;;;5.60;99.90;;;;;;5071272;28;20451;-66
2022/10/09 04:39:35;;;;;;;1999.90;999.90;;;5.60;99.90;;;;;;5071281;28;20457;-66
2022/10/09 04:42:01;;;;;;;1999.90;999.90;;;5.60;99.90;;;;;;5070580;28;20475;-66
2022/10/09 04:44:28;;;;;;;1999.90;999.90;;;5.60;99.90;;;;;;5070855;28;20439;-66
2022/10/09 04:46:55;;;;;;;1999.90;999.90;;;5.60;99.90;;;;;;5070738;28;20467;-66
2022/10/09 04:49:23;;;;;;;1999.90;999.90;;;5.50;99.90;;;;;;5070545;28;20438;-66
2022/10/09 04:51:50;;;;;;;1999.90;999.90;;;5.60;99.90;;;;;;5070598;28;20828;-66
2022/10/09 04:54:16;;;;;;;1999.90;999.90;;;5.70;99.90;;;;;;5070470;28;20443;-66
2022/10/09 04:56:43;;;;;;;1999.90;999.90;;;5.60;99.90;;;;;;5070602;28;20503;-66
2022/10/09 04:59:10;;;;;;;1999.90;999.90;;;5.60;99.90;;;;;;5070579;28;20838;-66
2022/10/09 05:01:37;;;;;;;1999.90;999.90;;;5.60;99.90;;;;;;5070456;28;20443;-66
2022/10/09 05:04:04;;;;;;;1999.90;999.90;;;5.70;99.90;;;;;;5070102;28;20566;-66
2022/10/09 05:06:32;;;;;;;1999.90;999.90;;;5.60;99.90;;;;;;5070536;28;20467;-66
2022/10/09 05:08:58;;;;;;;1999.90;999.90;;;5.50;99.90;;;;;;5070376;28;20458;-66
2022/10/09 05:11:26;;;;;;;1999.90;999.90;;;5.40;99.90;;;;;;5070152;28;20447;-66
2022/10/09 05:13:55;;;;;;;1999.90;999.90;;;5.40;99.90;;;;;;5070159;28;20443;-66
2022/10/09 05:16:24;;;;;;;1999.90;999.90;;;5.40;99.90;;;;;;5069926;28;20467;-66
2022/10/09 05:18:53;;;;;;;1999.90;999.90;;;5.30;99.90;;;;;;5070103;28;20550;-66
2022/10/09 05:21:20;;;;;;;1999.90;999.90;;;5.20;99.90;;;;;;5069903;28;20443;-66
2022/10/09 05:23:49;;;;;;;1999.90;999.90;;;5.30;99.90;;;;;;5069959;28;20482;-66
2022/10/09 05:26:17;;;;;;;1999.90;999.90;;;5.20;99.90;;;;;;5070035;28;20860;-66
2022/10/09 05:28:45;;;;;;;1999.90;999.90;;;5.20;99.90;;;;;;5069957;28;20443;-66
2022/10/09 05:31:17;;;;;;;1999.90;999.90;;;5.20;99.90;;;;;;5069862;28;20470;-66
2022/10/09 05:33:44;;;;;;;1999.90;999.90;;;5.10;99.90;;;;;;5069792;28;20842;-66
2022/10/09 05:36:11;;;;;;;1999.90;999.90;;;5.00;99.90;;;;;;5069600;28;20866;-65
2022/10/09 05:38:38;;;;;;;1999.90;999.90;;;5.00;99.90;;;;;;5070073;28;20470;-66
2022/10/09 05:41:08;;;;;;;1999.90;999.90;;;5.10;99.90;;;;;;5069463;28;20885;-66
2022/10/09 05:43:36;;;;;;;1999.90;999.90;;;5.10;99.90;;;;;;5069554;28;20479;-66
2022/10/09 05:46:07;;;;;;;1999.90;999.90;;;5.10;99.90;;;;;;5069876;28;20458;-66
2022/10/09 05:48:34;;;;;;;1999.90;999.90;;;5.20;99.90;;;;;;5069792;28;20443;-66
2022/10/09 05:51:09;;;;;;;1999.90;999.90;;;5.30;99.90;;;;;;5069777;28;20443;-66
2022/10/09 05:53:36;;;;;;;1999.90;999.90;;;5.40;99.90;;;;;;5069371;28;20449;-66
2022/10/09 05:56:13;;;;;;;1999.90;999.90;;;5.50;99.90;;;;;;5069624;28;20463;-66
2022/10/09 05:58:40;;;;;;;1999.90;999.90;;;5.40;99.90;;;;;;5069625;28;20496;-66
2022/10/09 06:01:07;;;;;;;1999.90;999.90;;;5.50;99.90;;;;;;5069384;28;20458;-66
2022/10/09 06:03:34;;;;;;;1999.90;999.90;;;5.50;99.90;;;;;;5069213;28;20478;-66
2022/10/09 06:06:01;;;;;;;1999.90;999.90;;;5.50;99.90;;;;;;5069672;28;20458;-66
2022/10/09 06:08:28;;;;;;;1999.90;999.90;;;5.50;99.90;;;;;;5069433;28;20439;-66
2022/10/09 06:10:55;;;;;;;1999.90;999.90;;;5.50;99.90;;;;;;5069780;28;20454;-66
2022/10/09 06:13:23;;;;;;;1999.90;999.90;;;5.50;99.90;;;;;;5069521;28;20440;-66
2022/10/09 06:15:54;;;;;;;1999.90;999.90;;;5.40;99.90;;;;;;5069482;28;20463;-66
2022/10/09 06:18:21;;;;;;;1999.90;999.90;;;5.40;99.90;;;;;;5069682;28;20443;-66
2022/10/09 06:20:54;;;;;;;1999.90;999.90;;;5.30;99.90;;;;;;5069443;28;20439;-66
2022/10/09 06:23:21;;;;;;;1999.90;999.90;;;5.30;99.90;;;;;;5069457;28;20479;-66
2022/10/09 06:25:52;;;;;;;1999.90;999.90;;;5.30;99.90;;;;;;5069457;28;20990;-66
2022/10/09 06:28:19;;;;;;;1999.90;999.90;;;5.50;99.90;;;;;;5069829;28;20442;-66
2022/10/09 06:30:47;;;;;;;1999.90;999.90;;;5.60;99.90;;;;;;5072302;28;20450;-66
2022/10/09 06:33:14;;;;;;;1999.90;999.90;;;5.80;99.90;;;;;;5073277;28;20443;-66
2022/10/09 06:35:41;;;;;;;1999.90;999.90;;;5.90;99.90;;;;;;5072182;28;20474;-66
2022/10/09 06:38:08;;;;;;;1999.90;999.90;;;5.80;99.90;;;;;;5068644;28;20460;-66
2022/10/09 06:40:36;;;;;;;1999.90;999.90;;;5.70;99.90;;;;;;5072796;28;20446;-66
2022/10/09 06:43:03;;;;;;;1999.90;999.90;;;5.80;99.90;;;;;;5073035;28;20470;-66
2022/10/09 06:45:30;;;;;;;1999.90;999.90;;;5.90;99.90;;;;;;5072904;28;20979;-66
2022/10/09 06:47:58;;;;;;;1999.90;999.90;;;6.00;99.90;;;;;;5072995;28;21067;-66
2022/10/09 06:50:25;;;;;;;1999.90;999.90;;;6.10;99.90;;;;;;5073336;28;20451;-66
2022/10/09 06:52:52;;;;;;;1999.90;999.90;;;6.30;99.90;;;;;;5072485;28;20937;-66
2022/10/09 06:55:19;;;;;;;1999.90;999.90;;;6.40;99.90;;;;;;5072977;28;21010;-66
2022/10/09 06:57:45;;;;;;;1999.90;999.90;;;6.40;99.90;;;;;;5072773;28;20447;-66
2022/10/09 07:00:13;;;;;;;1999.90;999.90;;;6.40;99.90;;;;;;5072887;28;20796;-66
2022/10/09 07:02:41;;;;;;;1999.90;999.90;;;6.40;99.90;;;;;;5072244;28;20482;-64
2022/10/09 07:05:09;;;;;;;1999.90;999.90;;;6.50;99.90;;;;;;5072955;28;20991;-66
2022/10/09 07:07:40;;;;;;;1999.90;999.90;;;6.70;99.90;;;;;;5072627;28;20827;-66
2022/10/09 07:10:07;;;;;;;1999.90;999.90;;;6.80;99.90;;;;;;5072973;28;20469;-66
2022/10/09 07:12:34;;;;;;;1999.90;999.90;;;7.00;99.90;;;;;;5072122;28;20819;-66
2022/10/09 07:15:01;;;;;;;1999.90;999.90;;;7.00;99.90;;;;;;5072430;28;20592;-66
2022/10/09 07:17:28;;;;;;;1999.90;999.90;;;7.10;99.90;;;;;;5072537;28;20439;-66
2022/10/09 07:19:54;;;;;;;1999.90;999.90;;;7.10;99.90;;;;;;5072308;28;20443;-66
2022/10/09 07:22:23;;;;;;;1999.90;999.90;;;7.10;99.90;;;;;;5072184;28;20446;-65
2022/10/09 07:24:50;;;;;;;1999.90;999.90;;;7.00;99.90;;;;;;5072236;28;20868;-67
2022/10/09 07:27:17;;;;;;;1999.90;999.90;;;7.00;99.90;;;;;;5072465;28;20533;-65
2022/10/09 07:29:44;;;;;;;1999.90;999.90;;;7.10;99.90;;;;;;5071970;28;20435;-66
2022/10/09 07:32:10;;;;;;;1999.90;999.90;;;7.10;99.90;;;;;;5072170;28;20450;-67
2022/10/09 07:34:37;;;;;;;1999.90;999.90;;;7.20;99.90;;;;;;5072076;28;20447;-66
2022/10/09 07:37:04;;;;;;;1999.90;999.90;;;7.30;99.90;;;;;;5072128;28;20473;-67
2022/10/09 07:39:33;;;;;;;1999.90;999.90;;;7.40;99.90;;;;;;5071932;28;20447;-66
2022/10/09 07:42:00;;;;;;;1999.90;999.90;;;7.50;99.90;;;;;;5068582;28;20467;-67
2022/10/09 07:44:27;;;;;;;1999.90;999.90;;;7.50;99.90;;;;;;5071579;28;20478;-67
2022/10/09 07:46:54;;;;;;;1999.90;999.90;;;7.70;99.90;;;;;;5066886;28;20463;-67
2022/10/09 07:49:21;;;;;;;1999.90;999.90;;;7.90;99.90;;;;;;5071828;28;20449;-67
2022/10/09 07:51:47;;;;;;;1999.90;999.90;;;8.00;99.90;;;;;;5071100;28;20443;-67
2022/10/09 07:54:14;;;;;;;1999.90;999.90;;;8.10;99.90;;;;;;5071497;28;20453;-66
2022/10/09 07:56:42;;;;;;;1999.90;999.90;;;8.20;99.90;;;;;;5070796;28;20968;-68
2022/10/09 07:59:13;;;;;;;1999.90;999.90;;;8.30;99.90;;;;;;5071456;28;20447;-66
2022/10/09 08:01:41;;;;;;;1999.90;999.90;;;8.40;99.90;;;;;;5070837;28;20461;-66
2022/10/09 08:04:08;;;;;;;1999.90;999.90;;;8.50;99.90;;;;;;5071732;28;20229;-66
2022/10/09 08:06:35;;;;;;;1999.90;999.90;;;8.60;99.90;;;;;;5071697;28;20474;-66
2022/10/09 08:09:03;;;;;;;1999.90;999.90;;;8.70;99.90;;;;;;5063079;28;20934;-68
2022/10/09 08:11:31;;;;;;;1999.90;999.90;;;8.70;99.90;;;;;;5066265;28;20500;-67
2022/10/09 08:13:59;;;;;;;1999.90;999.90;;;8.80;99.90;;;;;;5073570;28;20457;-68
2022/10/09 08:16:27;;;;;;;1999.90;999.90;;;9.00;99.90;;;;;;5071938;28;20471;-66
2022/10/09 08:18:55;;;;;;;1999.90;999.90;;;9.20;99.90;;;;;;5071127;28;20451;-67
2022/10/09 08:21:22;;;;;;;1999.90;999.90;;;9.40;99.90;;;;;;5063831;28;20459;-66
2022/10/09 08:23:53;;;;;;;1999.90;999.90;;;9.50;99.90;;;;;;5069962;28;20528;-66
2022/10/09 08:26:21;;;;;;;1999.90;999.90;;;9.60;99.90;;;;;;5069171;28;20524;-66
2022/10/09 08:28:50;;;;;;;1999.90;999.90;;;9.80;99.90;;;;;;5070670;28;20446;-66
2022/10/09 08:31:19;;;;;;;1999.90;999.90;;;10.00;99.90;;;;;;5067843;28;20449;-67
2022/10/09 08:33:45;;;;;;;1999.90;999.90;;;10.10;99.90;;;;;;5069384;28;20821;-67
2022/10/09 08:36:14;;;;;;;1999.90;999.90;;;10.20;99.90;;;;;;5070535;28;20478;-66
2022/10/09 08:38:43;;;;;;;1999.90;999.90;;;10.40;99.90;;;;;;5070648;28;20455;-67
2022/10/09 08:41:14;;;;;;;1999.90;999.90;;;10.60;99.90;;;;;;5068873;28;20937;-67
2022/10/09 08:43:45;;;;;;;1999.90;999.90;;;10.80;99.90;;;;;;5070812;28;20485;-64
2022/10/09 08:46:19;;;;;;;1999.90;999.90;;;11.00;99.90;;;;;;5070546;28;20474;-70
2022/10/09 08:48:48;;;;;;;1999.90;999.90;;;11.20;99.90;;;;;;5056238;28;22281;-66
2022/10/09 08:51:22;;;;;;;1999.90;999.90;;;11.30;99.90;;;;;;5056514;28;20528;-68
2022/10/09 08:53:54;;;;;;;1999.90;999.90;;;11.40;99.90;;;;;;5055415;28;20448;-67
2022/10/09 08:56:23;;;;;;;1999.90;999.90;;;11.50;99.90;;;;;;5058699;28;20515;-67
2022/10/09 08:58:49;;;;;;;1999.90;999.90;;;11.70;99.90;;;;;;5060485;28;20543;-67
2022/10/09 09:01:25;;;;;;;1999.90;999.90;;;11.80;99.90;;;;;;5063316;28;20453;-67
2022/10/09 09:04:22;;;;;;;1999.90;999.90;;;11.80;99.90;;;;;;5060995;28;20551;-66
2022/10/09 09:06:57;;;;;;;1999.90;999.90;;;12.00;99.90;;;;;;5054369;28;20469;-66
2022/10/09 09:09:32;;;;;;;1999.90;999.90;;;12.30;99.90;;;;;;5066223;28;20442;-66
2022/10/09 09:12:04;;;;;;;1999.90;999.90;;;12.50;99.90;;;;;;5063778;28;20439;-67
2022/10/09 09:14:47;;;;;;;1999.90;999.90;;;12.70;99.90;;;;;;5060038;28;20819;-65
2022/10/09 09:17:21;;;;;;;1999.90;999.90;;;13.00;99.90;;;;;;5060880;28;20447;-67
2022/10/09 09:20:01;;;;;;;1999.90;999.90;;;13.20;99.90;;;;;;5060115;28;21197;-65
2022/10/09 09:22:30;;;;;;;1999.90;999.90;;;13.50;99.90;;;;;;5058348;28;20493;-67
2022/10/09 09:24:58;;;;;;;1999.90;999.90;;;13.80;99.90;;;;;;5056528;28;20483;-67
2022/10/09 09:27:31;;;;;;;1999.90;999.90;;;14.10;99.90;;;;;;5057782;28;21477;-67
2022/10/09 09:30:01;;;;;;;1999.90;999.90;;;14.50;99.90;;;;;;5059129;28;20466;-68
2022/10/09 09:32:31;;;;;;;1999.90;999.90;;;14.90;99.90;;;;;;5062049;28;20464;-67
2022/10/09 09:35:08;;;;;;;1999.90;999.90;;;15.20;99.90;;;;;;5068926;28;20449;-69
2022/10/09 09:37:36;;;;;;;1999.90;999.90;;;15.60;99.90;;;;;;5067460;28;20463;-67
2022/10/09 09:40:04;;;;;;;1999.90;999.90;;;15.90;99.90;;;;;;5057139;28;20537;-67
2022/10/09 09:42:31;;;;;;;1999.90;999.90;;;16.30;99.90;;;;;;5048995;28;20443;-68
2022/10/09 09:45:02;;;;;;;1999.90;999.90;;;16.60;99.90;;;;;;5059720;28;20617;-67
2022/10/09 09:47:34;;;;;;;1999.90;999.90;;;16.90;99.90;;;;;;5057978;28;20467;-69
2022/10/09 09:50:03;;;;;;;1999.90;999.90;;;17.20;99.90;;;;;;5057552;28;20523;-68
2022/10/09 09:52:36;;;;;;;1999.90;999.90;;;17.60;99.90;;;;;;5061915;28;20836;-68
2022/10/09 09:55:03;;;;;;;1999.90;999.90;;;17.80;99.90;;;;;;5055898;28;20505;-68
2022/10/09 09:57:34;;;;;;;1999.90;999.90;;;18.10;99.90;;;;;;5054191;28;20455;-68
2022/10/09 10:00:17;;;;;;;1999.90;999.90;;;18.40;99.90;;;;;;5051209;28;20451;-68
2022/10/09 10:02:45;;;;;;;1999.90;999.90;;;18.80;99.90;;;;;;5059791;28;20471;-68
2022/10/09 10:05:20;;;;;;;1999.90;999.90;;;19.00;99.90;;;;;;5056630;28;20490;-68
2022/10/09 10:07:48;;;;;;;1999.90;999.90;;;19.40;99.90;;;;;;5058367;28;20462;-68
2022/10/09 10:10:18;;;;;;;1999.90;999.90;;;19.70;99.90;;;;;;5055911;28;20466;-67
2022/10/09 10:12:47;;;;;;;1999.90;999.90;;;20.00;99.90;;;;;;5058781;28;20459;-68
2022/10/09 10:15:23;;;;;;;1999.90;999.90;;;20.20;99.90;;;;;;5055865;28;20466;-68
2022/10/09 10:17:58;;;;;;;1999.90;999.90;;;20.60;99.90;;;;;;5054464;28;20447;-68
2022/10/09 10:20:26;;;;;;;1999.90;999.90;;;21.00;99.00;;;;;;5052536;28;20438;-68
2022/10/09 10:22:55;;;;;;;1999.90;999.90;;;21.30;98.50;;;;;;5054171;28;20455;-67
2022/10/09 10:25:26;;;;;;;1999.90;999.90;;;21.40;98.00;;;;;;5057047;28;20490;-68
2022/10/09 10:27:56;;;;;;;1999.90;999.90;;;21.70;96.50;;;;;;5052151;28;20530;-67
2022/10/09 10:30:23;;;;;;;1999.90;999.90;;;21.90;96.20;;;;;;5055278;28;20521;-68
2022/10/09 10:32:58;;;;;;;1999.90;999.90;;;22.10;96.00;;;;;;5054402;28;20447;-68
2022/10/09 10:35:28;;;;;;;1999.90;999.90;;;22.20;95.00;;;;;;5055588;28;21034;-67
2022/10/09 10:38:04;;;;;;;1999.90;999.90;;;22.40;94.70;;;;;;5055351;28;20973;-68
2022/10/09 10:40:33;;;;;;;1999.90;999.90;;;22.50;94.10;;;;;;5054156;28;20945;-68
2022/10/09 10:43:13;;;;;;;1999.90;999.90;;;22.80;94.00;;;;;;5056293;28;20439;-67
2022/10/09 10:45:49;;;;;;;1999.90;999.90;;;23.20;93.60;;;;;;5057382;28;20488;-68
2022/10/09 10:48:27;;;;;;;1999.90;999.90;;;23.30;92.50;;;;;;5054805;28;21312;-67
2022/10/09 10:51:02;;;;;;;1999.90;999.90;;;23.60;92.10;;;;;;5048466;28;20552;-67
2022/10/09 10:53:50;;;;;;;1999.90;999.90;;;23.70;91.90;;;;;;5054277;28;20480;-68
2022/10/09 10:56:24;;;;;;;1999.90;999.90;;;24.30;91.40;;;;;;5060364;28;20474;-68
2022/10/09 10:59:00;;;;;;;1999.90;999.90;;;24.80;88.60;;;;;;5046604;28;20439;-68
2022/10/09 11:01:35;;;;;;;1999.90;999.90;;;24.70;88.50;;;;;;5054738;28;20443;-68
2022/10/09 11:04:23;;;;;;;1999.90;999.90;;;24.90;87.00;;;;;;5053693;28;20478;-68
2022/10/09 11:06:58;;;;;;;1999.90;999.90;;;24.70;87.00;;;;;;5049796;28;20468;-68
2022/10/09 11:09:30;;;;;;;1999.90;999.90;;;24.70;85.20;;;;;;5053827;28;20455;-68
2022/10/09 11:12:08;;;;;;;1999.90;999.90;;;25.10;83.60;;;;;;5054873;28;20447;-67
2022/10/09 11:14:45;;;;;;;1999.90;999.90;;;25.60;85.40;;;;;;5052005;28;20451;-68
2022/10/09 11:17:25;;;;;;;1999.90;999.90;;;26.20;82.90;;;;;;5060169;28;20875;-68
2022/10/09 11:20:25;;;;;;;1999.90;999.90;;;26.50;80.40;;;;;;5055150;28;20451;-68
2022/10/09 11:23:07;;;;;;;1999.90;999.90;;;27.00;79.70;;;;;;5061181;28;20451;-68
2022/10/09 11:25:41;;;;;;;1999.90;999.90;;;27.40;75.50;;;;;;5049681;28;20479;-68
2022/10/09 11:28:13;;;;;;;1999.90;999.90;;;27.50;71.70;;;;;;5058371;28;20449;-68
2022/10/09 11:30:44;;;;;;;1999.90;999.90;;;27.70;75.00;;;;;;5067917;28;20457;-68
2022/10/09 11:33:29;;;;;;;1999.90;999.90;;;27.60;75.50;;;;;;5068972;28;20443;-68
2022/10/09 11:36:01;;;;;;;1999.90;999.90;;;27.90;73.70;;;;;;5067512;28;20870;-69
2022/10/09 11:38:32;;;;;;;1999.90;999.90;;;28.40;71.00;;;;;;5067808;28;20439;-69
2022/10/09 11:41:00;;;;;;;1999.90;999.90;;;28.40;68.10;;;;;;5068785;28;20447;-69
2022/10/09 11:43:58;;;;;;;1999.90;999.90;;;28.50;69.20;;;;;;5061909;28;20448;-67
2022/10/09 11:46:35;;;;;;;1999.90;999.90;;;28.50;69.60;;;;;;5056840;28;20459;-68
2022/10/09 11:49:09;;;;;;;1999.90;999.90;;;28.50;65.90;;;;;;5057189;28;20451;-67
2022/10/09 11:51:47;;;;;;;1999.90;999.90;;;28.10;67.60;;;;;;5057906;28;20451;-67
2022/10/09 11:54:17;;;;;;;1999.90;999.90;;;28.60;65.50;;;;;;5063031;28;20439;-68
2022/10/09 11:56:54;;;;;;;1999.90;999.90;;;28.80;67.00;;;;;;5068901;28;20455;-68
2022/10/09 11:59:28;;;;;;;1999.90;999.90;;;29.70;63.30;;;;;;5059765;28;20451;-68
2022/10/09 12:01:56;;;;;;;1999.90;999.90;;;29.80;65.90;;;;;;5059748;28;20533;-68
2022/10/09 12:04:29;;;;;;;1999.90;999.90;;;30.40;62.10;;;;;;5053952;28;20480;-69
2022/10/09 12:06:59;;;;;;;1999.90;999.90;;;30.40;62.10;;;;;;5050534;28;21066;-68
2022/10/09 12:09:30;;;;;;;1999.90;999.90;;;29.40;62.40;;;;;;5048577;28;20450;-68
2022/10/09 12:12:02;;;;;;;1999.90;999.90;;;28.70;61.10;;;;;;5049312;28;20451;-68
2022/10/09 12:14:30;;;;;;;1999.90;999.90;;;28.50;66.10;;;;;;5057512;28;20509;-68
2022/10/09 12:16:58;;;;;;;1999.90;999.90;;;29.00;65.00;;;;;;5058246;28;20456;-68
2022/10/09 12:19:27;;;;;;;1999.90;999.90;;;29.20;60.90;;;;;;5056677;28;20439;-68